< < Back
Terminal Aerodrome Forecast


Current Version              Previous Versions:   1  2  3  4  5  6  7  8  9  

Terminal Aerodrome Forecast

393
FTUS42 KTAE 241700
TAFABY
TAF
KABY 241723Z 2418/2518 17005KT P6SM SCT050 SCT070
     FM250100 VRB03KT P6SM SKC
     FM250600 23004KT 6SM BR SKC
     FM251100 22004KT 6SM BR BKN010
     FM251400 25015KT P6SM SCT025 BKN060=

Latest METAR

562
SAUS70 KWBC 242000 RRH
MTRABY
METAR KABY 241953Z 17003KT 9SM BKN065 BKN080 28/13 A2995 RMK AO2 SLP142
T02780133


USA.gov is the U.S. government's official web portal to all federal, state and local government web resources and services.